createdAt,value
2023-01-29T00:00:10.340Z,101593.88
2023-01-29T00:02:40.428Z,101593.88
2023-01-29T00:05:26.036Z,101589.94
2023-01-29T00:07:55.401Z,101594.94
2023-01-29T00:10:22.941Z,101587.59
2023-01-29T00:12:51.910Z,101588.25
2023-01-29T00:15:19.282Z,101580.84
2023-01-29T00:17:46.600Z,101585.22
2023-01-29T00:20:14.288Z,101579.16
2023-01-29T00:22:41.743Z,101577.22
2023-01-29T00:25:09.336Z,101573.06
2023-01-29T00:27:36.631Z,101570.59
2023-01-29T00:30:13.147Z,101573.03
2023-01-29T00:32:40.841Z,101565.91
2023-01-29T00:35:08.866Z,101568.06
2023-01-29T00:37:36.274Z,101552.28
2023-01-29T00:40:04.177Z,101558.13
2023-01-29T00:42:50.019Z,101555.31
2023-01-29T00:45:17.322Z,101557.91
2023-01-29T00:47:45.968Z,101546.41
2023-01-29T00:50:13.687Z,101555.22
2023-01-29T00:52:41.199Z,101542.66
2023-01-29T00:55:10.275Z,101537.09
2023-01-29T00:57:38.446Z,101531.09
2023-01-29T01:00:07.127Z,101529.63
2023-01-29T01:02:52.671Z,101529.41
2023-01-29T01:05:20.022Z,101533.91
2023-01-29T01:07:47.819Z,101526.66
2023-01-29T01:10:23.053Z,101522.31
2023-01-29T01:12:53.601Z,101533.41
2023-01-29T01:15:21.224Z,101538.69
2023-01-29T01:17:49.013Z,101541.75
2023-01-29T01:20:16.605Z,101543.59
2023-01-29T01:22:44.026Z,101541.66
2023-01-29T01:25:11.393Z,101551.50
2023-01-29T01:27:41.329Z,101538.44
2023-01-29T01:30:10.259Z,101528.03
2023-01-29T01:32:38.186Z,101535.34
2023-01-29T01:35:05.637Z,101536.19
2023-01-29T01:37:33.042Z,101525.19
2023-01-29T01:40:00.431Z,101520.88
2023-01-29T01:42:30.122Z,101509.81
2023-01-29T01:45:01.392Z,101506.34
2023-01-29T01:47:43.332Z,101511.09
2023-01-29T01:50:16.868Z,101505.13
2023-01-29T01:52:49.466Z,101504.72
2023-01-29T01:55:19.107Z,101496.81
2023-01-29T01:57:48.111Z,101495.09
2023-01-29T02:00:16.532Z,101500.06
2023-01-29T02:03:04.292Z,101493.97
2023-01-29T02:05:53.033Z,101496.94
2023-01-29T02:08:43.057Z,101494.59
2023-01-29T02:11:10.773Z,101490.72
2023-01-29T02:13:38.538Z,101487.41
2023-01-29T02:16:06.078Z,101486.63
2023-01-29T02:18:38.159Z,101481.91
2023-01-29T02:21:12.547Z,101484.38
2023-01-29T02:23:48.753Z,101479.88
2023-01-29T02:26:42.566Z,101469.50
2023-01-29T02:29:27.284Z,101467.34
2023-01-29T02:32:30.152Z,101465.34
2023-01-29T02:35:27.283Z,101464.56
2023-01-29T02:38:10.950Z,101451.53
2023-01-29T02:40:52.388Z,101449.34
2023-01-29T02:43:30.735Z,101452.97
2023-01-29T02:46:07.175Z,101454.53
2023-01-29T02:48:40.121Z,101450.41
2023-01-29T02:51:11.334Z,101449.75
2023-01-29T02:53:44.687Z,101441.66
2023-01-29T02:56:11.955Z,101445.19
2023-01-29T02:58:44.192Z,101438.69
2023-01-29T03:01:16.491Z,101430.69
2023-01-29T03:03:45.913Z,101427.69
2023-01-29T03:06:39.575Z,101428.25
2023-01-29T03:09:11.428Z,101431.72
2023-01-29T03:11:41.957Z,101431.59
2023-01-29T03:14:13.497Z,101427.63
2023-01-29T03:16:49.954Z,101429.00
2023-01-29T03:19:26.544Z,101423.31
2023-01-29T03:21:59.547Z,101419.09
2023-01-29T03:25:08.656Z,101421.50
2023-01-29T03:28:05.488Z,101410.69
2023-01-29T03:31:00.570Z,101406.03
2023-01-29T03:33:44.412Z,101403.72
2023-01-29T03:36:15.539Z,101410.41
2023-01-29T03:38:43.947Z,101406.94
2023-01-29T03:41:17.495Z,101402.78
2023-01-29T03:44:17.190Z,101387.78
2023-01-29T03:46:53.391Z,101393.38
2023-01-29T03:49:33.134Z,101392.97
2023-01-29T03:52:19.953Z,101395.06
2023-01-29T03:55:01.401Z,101383.03
2023-01-29T03:57:38.822Z,101384.47
2023-01-29T04:00:15.771Z,101391.16
2023-01-29T04:03:05.608Z,101373.03
2023-01-29T04:05:40.083Z,101383.88
2023-01-29T04:08:16.897Z,101385.06
2023-01-29T04:10:46.059Z,101381.59
2023-01-29T04:13:15.097Z,101384.69
2023-01-29T04:15:46.920Z,101387.16
2023-01-29T04:18:15.248Z,101382.34
2023-01-29T04:21:01.622Z,101381.81
2023-01-29T04:23:29.572Z,101380.66
2023-01-29T04:26:15.437Z,101377.91
2023-01-29T04:29:03.018Z,101373.53
2023-01-29T04:31:39.626Z,101365.97
2023-01-29T04:34:28.252Z,101369.03
2023-01-29T04:37:03.328Z,101365.56
2023-01-29T04:39:30.771Z,101360.38
2023-01-29T04:42:13.125Z,101354.63
2023-01-29T04:44:52.479Z,101354.13
2023-01-29T04:47:27.176Z,101352.56
2023-01-29T04:50:07.593Z,101358.19
2023-01-29T04:52:53.605Z,101359.34
2023-01-29T04:55:21.145Z,101351.25
2023-01-29T04:58:06.713Z,101350.13
2023-01-29T05:00:37.904Z,101345.72
2023-01-29T05:03:06.416Z,101342.78
2023-01-29T05:05:33.867Z,101341.47
2023-01-29T05:08:01.267Z,101341.03
2023-01-29T05:10:29.107Z,101338.25
2023-01-29T05:13:01.159Z,101334.63
2023-01-29T05:15:32.174Z,101326.81
2023-01-29T05:18:02.971Z,101334.56
2023-01-29T05:20:34.629Z,101318.53
2023-01-29T05:23:01.951Z,101310.25
2023-01-29T05:25:31.126Z,101303.81
2023-01-29T05:28:12.034Z,101314.16
2023-01-29T05:30:40.057Z,101308.53
2023-01-29T05:33:20.696Z,101314.38
2023-01-29T05:35:48.804Z,101309.38
2023-01-29T05:38:16.555Z,101310.00
2023-01-29T05:40:44.384Z,101295.97
2023-01-29T05:43:14.575Z,101298.31
2023-01-29T05:45:42.170Z,101302.41
2023-01-29T05:48:09.430Z,101303.47
2023-01-29T05:50:36.690Z,101297.31
2023-01-29T05:53:03.946Z,101298.03
2023-01-29T05:55:31.306Z,101295.69
2023-01-29T05:57:58.623Z,101304.19
2023-01-29T06:00:25.993Z,101296.06
2023-01-29T06:02:53.307Z,101298.03
2023-01-29T06:05:20.647Z,101289.66
2023-01-29T06:07:47.924Z,101290.16
2023-01-29T06:10:16.491Z,101290.00
2023-01-29T06:12:44.276Z,101293.50
2023-01-29T06:15:12.149Z,101292.28
2023-01-29T06:17:39.403Z,101298.63
2023-01-29T06:20:07.223Z,101306.78
2023-01-29T06:22:34.570Z,101299.41
2023-01-29T06:25:02.013Z,101306.78
2023-01-29T06:27:29.333Z,101302.63
2023-01-29T06:29:56.581Z,101292.75
2023-01-29T06:32:23.845Z,101290.66
2023-01-29T06:34:51.191Z,101280.31
2023-01-29T06:37:18.391Z,101278.59
2023-01-29T06:39:45.673Z,101279.63
2023-01-29T06:42:12.887Z,101279.56
2023-01-29T06:44:40.230Z,101281.78
2023-01-29T06:47:07.498Z,101274.88
2023-01-29T06:49:34.749Z,101270.44
2023-01-29T06:52:02.023Z,101267.25
2023-01-29T06:54:29.757Z,101268.25
2023-01-29T06:56:57.109Z,101267.31
2023-01-29T06:59:24.383Z,101267.25
2023-01-29T07:01:51.690Z,101268.47
2023-01-29T07:04:19.021Z,101266.66
2023-01-29T07:06:46.204Z,101265.22
2023-01-29T07:09:16.737Z,101267.38
2023-01-29T07:11:44.364Z,101261.72
2023-01-29T07:14:11.606Z,101262.19
2023-01-29T07:16:39.029Z,101264.09
2023-01-29T07:19:06.247Z,101268.25
2023-01-29T07:21:33.670Z,101260.53
2023-01-29T07:24:00.933Z,101256.06
2023-01-29T07:26:28.203Z,101252.47
2023-01-29T07:28:55.380Z,101260.44
2023-01-29T07:31:23.186Z,101267.19
2023-01-29T07:33:50.515Z,101256.41
2023-01-29T07:36:17.857Z,101253.69
2023-01-29T07:38:49.007Z,101254.38
2023-01-29T07:41:16.497Z,101244.59
2023-01-29T07:43:46.197Z,101248.97
2023-01-29T07:46:13.792Z,101244.75
2023-01-29T07:48:41.025Z,101237.63
2023-01-29T07:51:08.437Z,101235.84
2023-01-29T07:53:37.118Z,101235.59
2023-01-29T07:56:04.543Z,101224.59
2023-01-29T07:58:36.697Z,101227.00
2023-01-29T08:01:08.060Z,101232.19
2023-01-29T08:03:36.018Z,101231.19
2023-01-29T08:06:04.101Z,101225.28
2023-01-29T08:08:31.588Z,101223.91
2023-01-29T08:11:00.972Z,101217.13
2023-01-29T08:13:28.213Z,101220.53
2023-01-29T08:15:59.242Z,101210.75
2023-01-29T08:18:26.582Z,101213.97
2023-01-29T08:20:54.456Z,101204.88
2023-01-29T08:23:21.854Z,101211.66
2023-01-29T08:25:49.108Z,101208.81
2023-01-29T08:28:16.896Z,101202.72
2023-01-29T08:30:44.750Z,101202.22
2023-01-29T08:33:11.996Z,101202.94
2023-01-29T08:35:41.228Z,101207.56
2023-01-29T08:38:10.332Z,101201.22
2023-01-29T08:40:38.068Z,101201.38
2023-01-29T08:43:08.762Z,101185.91
2023-01-29T08:45:41.531Z,101184.06
2023-01-29T08:48:14.817Z,101190.66
2023-01-29T08:50:42.196Z,101188.56
2023-01-29T08:53:09.619Z,101180.59
2023-01-29T08:55:37.615Z,101174.78
2023-01-29T08:58:05.585Z,101163.75
2023-01-29T09:00:33.334Z,101165.97
2023-01-29T09:03:01.110Z,101172.00
2023-01-29T09:05:28.442Z,101171.88
2023-01-29T09:07:57.190Z,101178.84
2023-01-29T09:10:24.735Z,101169.91
2023-01-29T09:12:52.032Z,101168.94
2023-01-29T09:15:19.602Z,101162.56
2023-01-29T09:17:47.193Z,101169.97
2023-01-29T09:20:14.547Z,101167.72
2023-01-29T09:22:42.181Z,101163.66
2023-01-29T09:25:09.697Z,101163.81
2023-01-29T09:27:37.044Z,101173.91
2023-01-29T09:30:05.063Z,101164.78
2023-01-29T09:35:22.400Z,101164.78
2023-01-29T09:37:50.283Z,101160.06
2023-01-29T09:40:22.909Z,101160.34
2023-01-29T09:43:10.538Z,101152.97
2023-01-29T09:45:41.260Z,101158.56
2023-01-29T09:48:11.488Z,101148.00
2023-01-29T09:50:41.626Z,101157.63
2023-01-29T09:53:21.171Z,101159.59
2023-01-29T09:55:55.651Z,101158.88
2023-01-29T09:58:32.100Z,101161.09
2023-01-29T10:00:59.376Z,101153.72
2023-01-29T10:03:43.961Z,101145.69
2023-01-29T10:06:30.099Z,101145.59
2023-01-29T10:09:04.967Z,101141.00
2023-01-29T10:11:38.756Z,101139.66
2023-01-29T10:14:21.024Z,101135.47
2023-01-29T10:16:48.447Z,101136.19
2023-01-29T10:19:26.483Z,101133.53
2023-01-29T10:22:03.956Z,101129.28
2023-01-29T10:24:36.749Z,101120.19
2023-01-29T10:27:12.352Z,101118.69
2023-01-29T10:29:41.607Z,101108.88
2023-01-29T10:32:12.171Z,101094.59
2023-01-29T10:34:43.163Z,101091.63
2023-01-29T10:37:33.246Z,101076.09
2023-01-29T10:40:00.504Z,101077.56
2023-01-29T10:42:33.389Z,101067.25
2023-01-29T10:45:00.755Z,101069.44
2023-01-29T10:47:30.370Z,101064.41
2023-01-29T10:50:06.749Z,101059.84
2023-01-29T10:52:55.927Z,101062.81
2023-01-29T10:55:24.385Z,101050.25
2023-01-29T10:58:03.542Z,101046.78
2023-01-29T11:00:35.840Z,101041.88
2023-01-29T11:03:27.955Z,101037.16
2023-01-29T11:05:56.144Z,101032.16
2023-01-29T11:08:34.901Z,101026.84
2023-01-29T11:11:07.790Z,101031.50
2023-01-29T11:13:38.654Z,101023.84
2023-01-29T11:16:07.976Z,101022.59
2023-01-29T11:18:49.038Z,101025.38
2023-01-29T11:21:16.475Z,101030.03
2023-01-29T11:23:43.797Z,101024.06
2023-01-29T11:26:18.425Z,101015.91
2023-01-29T11:28:47.704Z,101007.19
2023-01-29T11:31:19.513Z,101007.34
2023-01-29T11:33:47.316Z,101013.03
2023-01-29T11:36:21.891Z,101016.13
2023-01-29T11:39:05.055Z,100999.28
2023-01-29T11:41:42.780Z,101000.25
2023-01-29T11:44:29.559Z,100991.13
2023-01-29T11:46:59.501Z,100992.59
2023-01-29T11:49:34.907Z,100980.31
2023-01-29T11:52:04.351Z,100987.06
2023-01-29T11:54:34.339Z,100985.72
2023-01-29T11:57:03.107Z,100993.53
2023-01-29T11:59:37.566Z,100993.97
2023-01-29T12:02:19.340Z,100990.16
2023-01-29T12:04:47.180Z,100989.25
2023-01-29T12:07:16.109Z,100986.38
2023-01-29T12:09:50.636Z,100978.22
2023-01-29T12:12:27.759Z,100968.22
2023-01-29T12:15:06.513Z,100957.66
2023-01-29T12:17:38.611Z,100956.78
2023-01-29T12:20:11.396Z,100955.91
2023-01-29T12:22:50.539Z,100953.44
2023-01-29T12:25:20.915Z,100959.41
2023-01-29T12:27:57.253Z,100948.78
2023-01-29T12:30:24.744Z,100948.25
2023-01-29T12:32:51.984Z,100941.41
2023-01-29T12:35:28.731Z,100942.38
2023-01-29T12:38:11.120Z,100935.88
2023-01-29T12:40:47.532Z,100928.84
2023-01-29T12:43:19.098Z,100924.41
2023-01-29T12:45:50.646Z,100920.97
2023-01-29T12:48:24.450Z,100916.06
2023-01-29T12:51:00.086Z,100914.31
2023-01-29T12:53:30.567Z,100919.75
2023-01-29T12:56:00.258Z,100912.59
2023-01-29T12:58:31.344Z,100906.69
2023-01-29T13:01:03.429Z,100895.84
2023-01-29T13:04:00.200Z,100898.41
2023-01-29T13:06:33.116Z,100900.44
2023-01-29T13:09:07.354Z,100899.28
2023-01-29T13:12:00.908Z,100902.66
2023-01-29T13:14:46.715Z,100909.88
2023-01-29T13:17:32.925Z,100899.88
2023-01-29T13:20:18.660Z,100906.69
2023-01-29T13:22:48.090Z,100896.81
2023-01-29T13:25:17.274Z,100895.19
2023-01-29T13:27:47.735Z,100896.97
2023-01-29T13:30:25.373Z,100895.75
2023-01-29T13:32:54.521Z,100900.38
2023-01-29T13:35:23.278Z,100910.09
2023-01-29T13:37:52.746Z,100907.16
2023-01-29T13:40:24.510Z,100898.50
2023-01-29T13:42:54.253Z,100898.66
2023-01-29T13:45:22.732Z,100902.22
2023-01-29T13:47:51.217Z,100903.47
2023-01-29T13:50:26.015Z,100903.47
2023-01-29T13:52:58.124Z,100900.72
2023-01-29T13:55:31.427Z,100898.47
2023-01-29T13:58:00.189Z,100897.94
2023-01-29T14:00:33.618Z,100899.25
2023-01-29T14:03:01.142Z,100900.47
2023-01-29T14:05:31.546Z,100896.41
2023-01-29T14:08:14.286Z,100893.84
2023-01-29T14:10:42.795Z,100896.28
2023-01-29T14:13:19.116Z,100889.34
2023-01-29T14:16:06.389Z,100881.88
2023-01-29T14:18:35.228Z,100885.22
2023-01-29T14:21:04.890Z,100880.81
2023-01-29T14:23:41.322Z,100880.09
2023-01-29T14:26:19.980Z,100866.47
2023-01-29T14:28:54.449Z,100871.81
2023-01-29T14:31:40.751Z,100861.84
2023-01-29T14:34:28.664Z,100860.53
2023-01-29T14:36:57.644Z,100866.19
2023-01-29T14:39:29.755Z,100847.09
2023-01-29T14:41:57.723Z,100844.06
2023-01-29T14:45:04.250Z,100839.63
2023-01-29T14:47:34.134Z,100829.25
2023-01-29T14:50:03.287Z,100828.00
2023-01-29T14:52:37.623Z,100817.72
2023-01-29T14:55:07.900Z,100810.69
2023-01-29T14:57:36.220Z,100806.69
2023-01-29T15:00:05.883Z,100810.16
2023-01-29T15:02:41.170Z,100797.56
2023-01-29T15:05:11.943Z,100785.69
2023-01-29T15:07:44.322Z,100780.41
2023-01-29T15:10:22.232Z,100776.84
2023-01-29T15:13:17.012Z,100782.03
2023-01-29T15:15:48.005Z,100781.69
2023-01-29T15:18:17.752Z,100781.34
2023-01-29T15:20:45.115Z,100790.06
2023-01-29T15:23:26.249Z,100785.44
2023-01-29T15:25:55.291Z,100774.88
2023-01-29T15:28:22.561Z,100780.69
2023-01-29T15:30:55.031Z,100779.47
2023-01-29T15:33:22.520Z,100774.88
2023-01-29T15:36:06.349Z,100771.47
2023-01-29T15:38:34.913Z,100769.44
2023-01-29T15:41:04.110Z,100770.84
2023-01-29T15:43:35.425Z,100769.03
2023-01-29T15:46:04.936Z,100764.25
2023-01-29T15:48:34.967Z,100760.22
2023-01-29T15:51:05.158Z,100759.63
2023-01-29T15:53:36.570Z,100773.56
2023-01-29T15:56:08.201Z,100780.41
2023-01-29T15:58:35.655Z,100779.59
2023-01-29T16:01:03.447Z,100775.59
2023-01-29T16:03:31.735Z,100775.31
2023-01-29T16:05:59.394Z,100775.28
2023-01-29T16:08:27.064Z,100764.69
2023-01-29T16:10:58.943Z,100764.44
2023-01-29T16:13:28.388Z,100750.94
2023-01-29T16:16:00.628Z,100753.19
2023-01-29T16:18:41.042Z,100753.69
2023-01-29T16:21:27.114Z,100744.25
2023-01-29T16:23:56.768Z,100746.72
2023-01-29T16:26:25.751Z,100745.56
2023-01-29T16:28:53.063Z,100737.34
2023-01-29T16:31:25.160Z,100742.13
2023-01-29T16:33:53.020Z,100735.06
2023-01-29T16:36:21.575Z,100725.03
2023-01-29T16:38:58.063Z,100723.06
2023-01-29T16:41:25.397Z,100716.16
2023-01-29T16:43:54.695Z,100713.81
2023-01-29T16:46:57.346Z,100715.03
2023-01-29T16:49:27.313Z,100701.97
2023-01-29T16:51:56.530Z,100709.84
2023-01-29T16:54:27.780Z,100706.78
2023-01-29T16:56:59.282Z,100697.69
2023-01-29T16:59:32.488Z,100694.69
2023-01-29T17:02:00.372Z,100684.94
2023-01-29T17:04:27.963Z,100684.84
2023-01-29T17:06:56.683Z,100675.69
2023-01-29T17:09:30.327Z,100674.00
2023-01-29T17:12:04.072Z,100669.19
2023-01-29T17:14:32.281Z,100660.44
2023-01-29T17:17:04.042Z,100660.34
2023-01-29T17:19:31.563Z,100652.13
2023-01-29T17:21:59.211Z,100641.03
2023-01-29T17:24:26.672Z,100644.56
2023-01-29T17:26:54.322Z,100634.69
2023-01-29T17:29:24.438Z,100634.94
2023-01-29T17:31:51.934Z,100634.94
2023-01-29T17:34:19.317Z,100625.97
2023-01-29T17:36:46.745Z,100627.63
2023-01-29T17:39:17.197Z,100616.69
2023-01-29T17:41:49.838Z,100616.19
2023-01-29T17:44:17.366Z,100601.88
2023-01-29T17:46:44.686Z,100607.31
2023-01-29T17:49:21.411Z,100600.16
2023-01-29T17:51:49.545Z,100599.03
2023-01-29T17:54:16.775Z,100589.03
2023-01-29T17:56:44.050Z,100587.59
2023-01-29T17:59:18.714Z,100587.56
2023-01-29T18:01:46.345Z,100586.09
2023-01-29T18:04:14.213Z,100584.81
2023-01-29T18:06:42.147Z,100576.09
2023-01-29T18:09:13.150Z,100575.38
2023-01-29T18:11:41.071Z,100571.03
2023-01-29T18:14:13.805Z,100554.63
2023-01-29T18:16:42.936Z,100549.09
2023-01-29T18:19:15.164Z,100545.16
2023-01-29T18:21:42.695Z,100539.66
2023-01-29T18:24:10.132Z,100533.94
2023-01-29T18:26:37.678Z,100538.22
2023-01-29T18:29:05.132Z,100537.53
2023-01-29T18:31:32.598Z,100534.53
2023-01-29T18:33:59.892Z,100536.53
2023-01-29T18:36:27.216Z,100539.34
2023-01-29T18:38:54.556Z,100527.97
2023-01-29T18:41:21.911Z,100530.00
2023-01-29T18:43:49.374Z,100502.84
2023-01-29T18:46:16.991Z,100516.03
2023-01-29T18:48:44.286Z,100513.09
2023-01-29T18:51:11.789Z,100509.03
2023-01-29T18:53:39.005Z,100504.56
2023-01-29T18:56:06.623Z,100496.00
2023-01-29T18:58:36.264Z,100495.75
2023-01-29T19:01:09.194Z,100485.50
2023-01-29T19:03:37.016Z,100485.16
2023-01-29T19:06:06.275Z,100489.19
2023-01-29T19:08:34.098Z,100488.06
2023-01-29T19:11:04.004Z,100487.44
2023-01-29T19:13:32.071Z,100478.03
2023-01-29T19:15:59.311Z,100465.47
2023-01-29T19:18:27.465Z,100468.22
2023-01-29T19:20:54.848Z,100464.06
2023-01-29T19:23:22.436Z,100463.53
2023-01-29T19:25:49.767Z,100465.50
2023-01-29T19:28:17.220Z,100458.94
2023-01-29T19:30:44.547Z,100456.06
2023-01-29T19:33:12.076Z,100448.94
2023-01-29T19:35:39.331Z,100441.50
2023-01-29T19:38:06.754Z,100435.81
2023-01-29T19:40:34.076Z,100435.22
2023-01-29T19:43:01.414Z,100436.38
2023-01-29T19:45:48.998Z,100425.56
2023-01-29T19:48:21.790Z,100418.69
2023-01-29T19:50:56.445Z,100411.16
2023-01-29T19:53:24.248Z,100410.44
2023-01-29T19:56:01.748Z,100392.41
2023-01-29T19:58:29.253Z,100395.75
2023-01-29T20:01:00.697Z,100380.19
2023-01-29T20:03:29.073Z,100370.75
2023-01-29T20:05:56.842Z,100373.03
2023-01-29T20:08:24.274Z,100363.06
2023-01-29T20:10:51.567Z,100357.66
2023-01-29T20:13:18.921Z,100347.66
2023-01-29T20:15:46.590Z,100355.66
2023-01-29T20:18:14.518Z,100349.47
2023-01-29T20:20:42.813Z,100344.50
2023-01-29T20:23:10.786Z,100349.09
2023-01-29T20:25:38.309Z,100345.69
2023-01-29T20:28:07.571Z,100344.09
2023-01-29T20:30:35.386Z,100334.50
2023-01-29T20:33:03.865Z,100337.38
2023-01-29T20:35:31.939Z,100335.53
2023-01-29T20:37:59.466Z,100341.09
2023-01-29T20:40:27.127Z,100321.13
2023-01-29T20:42:54.482Z,100317.47
2023-01-29T20:45:22.096Z,100313.19
2023-01-29T20:47:49.792Z,100300.31
2023-01-29T20:50:19.250Z,100298.63
2023-01-29T20:52:46.860Z,100292.34
2023-01-29T20:55:14.201Z,100293.75
2023-01-29T20:57:41.752Z,100282.09
2023-01-29T21:00:09.315Z,100267.81
2023-01-29T21:02:36.612Z,100286.94
2023-01-29T21:05:03.933Z,100263.50
2023-01-29T21:07:31.343Z,100260.69
2023-01-29T21:09:58.572Z,100257.00
2023-01-29T21:12:25.884Z,100255.56
2023-01-29T21:14:53.049Z,100248.75
2023-01-29T21:17:20.455Z,100253.00
2023-01-29T21:19:47.741Z,100240.75
2023-01-29T21:22:15.060Z,100236.34
2023-01-29T21:24:42.438Z,100227.78
2023-01-29T21:27:09.831Z,100211.94
2023-01-29T21:29:37.876Z,100222.50
2023-01-29T21:32:05.486Z,100215.38
2023-01-29T21:34:32.824Z,100207.13
2023-01-29T21:37:00.130Z,100204.84
2023-01-29T21:39:27.400Z,100199.69
2023-01-29T21:42:13.223Z,100196.44
2023-01-29T21:44:40.764Z,100189.97
2023-01-29T21:47:13.834Z,100179.47
2023-01-29T21:49:42.025Z,100174.63
2023-01-29T21:52:09.853Z,100176.03
2023-01-29T21:54:37.519Z,100171.75
2023-01-29T21:57:04.916Z,100173.47
2023-01-29T21:59:32.522Z,100169.22
2023-01-29T22:01:59.884Z,100164.66
2023-01-29T22:04:27.760Z,100161.16
2023-01-29T22:06:55.599Z,100150.53
2023-01-29T22:09:22.963Z,100155.25
2023-01-29T22:11:50.306Z,100143.59
2023-01-29T22:14:18.467Z,100137.56
2023-01-29T22:16:46.192Z,100127.59
2023-01-29T22:19:13.734Z,100124.94
2023-01-29T22:21:40.950Z,100121.22
2023-01-29T22:24:08.491Z,100113.84
2023-01-29T22:26:35.990Z,100112.47
2023-01-29T22:29:03.413Z,100104.13
2023-01-29T22:31:30.595Z,100097.56
2023-01-29T22:33:58.050Z,100098.28
2023-01-29T22:36:25.268Z,100084.31
2023-01-29T22:38:52.616Z,100082.16
2023-01-29T22:41:19.876Z,100080.94
2023-01-29T22:43:47.142Z,100065.97
2023-01-29T22:46:14.553Z,100061.59
2023-01-29T22:48:42.062Z,100055.78
2023-01-29T22:51:10.165Z,100045.84
2023-01-29T22:53:44.691Z,100040.94
2023-01-29T22:56:12.592Z,100051.00
2023-01-29T22:58:41.184Z,100030.94
2023-01-29T23:01:09.220Z,100037.28
2023-01-29T23:03:36.562Z,100022.22
2023-01-29T23:06:04.084Z,100010.88
2023-01-29T23:08:32.724Z,100012.75
2023-01-29T23:11:14.060Z,100005.50
2023-01-29T23:13:42.807Z,100005.44
2023-01-29T23:16:10.142Z,100000.75
2023-01-29T23:18:37.437Z,99988.94
2023-01-29T23:21:05.064Z,99985.16
2023-01-29T23:23:34.005Z,99975.75
2023-01-29T23:26:20.482Z,99981.69
2023-01-29T23:28:48.027Z,99968.81
2023-01-29T23:31:15.664Z,99964.41
2023-01-29T23:33:43.419Z,99959.22
2023-01-29T23:36:10.693Z,99956.91
2023-01-29T23:38:38.607Z,99950.78
2023-01-29T23:41:06.056Z,99942.66
2023-01-29T23:43:33.302Z,99940.53
2023-01-29T23:46:00.744Z,99937.56
2023-01-29T23:48:28.242Z,99937.34
2023-01-29T23:50:55.425Z,99930.75
2023-01-29T23:53:22.958Z,99923.19
2023-01-29T23:56:05.059Z,99918.88
2023-01-29T23:58:32.861Z,99909.84
